Time;durP1;ratioP1;P1;durP2;ratioP2;P2;SDS_P1;SDS_P2;PMS_P1;PMS_P2;Temp;Humidity;BMP_temperature;BMP_pressure;BME280_temperature;BME280_humidity;BME280_pressure;Samples;Min_cycle;Max_cycle;Signal;HPM_P1;HPM_P2
2021/03/23 00:09:43;;;;;;;14.45;8.23;;;6.60;99.90;;;;;;6718390;88;20182;-75
2021/03/23 00:19:44;;;;;;;16.85;8.40;;;6.60;99.90;;;;;;6719705;88;20238;-74
2021/03/23 00:29:46;;;;;;;16.33;7.75;;;6.60;99.90;;;;;;6728379;88;20242;-74
2021/03/23 00:39:47;;;;;;;15.10;8.00;;;6.60;99.90;;;;;;6726163;88;20184;-74
2021/03/23 00:49:48;;;;;;;15.50;7.78;;;6.70;99.90;;;;;;6724608;88;20187;-74
2021/03/23 00:59:48;;;;;;;16.48;8.05;;;6.80;99.90;;;;;;6721657;88;20248;-74
2021/03/23 01:09:49;;;;;;;14.73;7.43;;;6.50;99.90;;;;;;6717411;88;20194;-74
2021/03/23 01:19:49;;;;;;;18.50;9.40;;;6.40;99.90;;;;;;6716878;88;20190;-75
2021/03/23 01:29:50;;;;;;;18.23;8.80;;;6.40;99.90;;;;;;6715584;88;20182;-74
2021/03/23 01:39:51;;;;;;;20.12;9.07;;;6.40;99.90;;;;;;6718604;88;20513;-74
2021/03/23 01:49:52;;;;;;;21.15;9.52;;;6.40;99.90;;;;;;6718640;88;20710;-74
2021/03/23 01:59:56;;;;;;;19.30;9.55;;;6.50;99.90;;;;;;6727204;88;20954;-74
2021/03/23 02:09:58;;;;;;;23.08;10.02;;;6.40;99.90;;;;;;6716566;88;20177;-74
2021/03/23 02:20:00;;;;;;;21.67;10.23;;;6.20;99.90;;;;;;6716655;88;20244;-74
2021/03/23 02:30:02;;;;;;;23.45;10.38;;;6.20;99.90;;;;;;6716872;88;20576;-74
2021/03/23 02:40:05;;;;;;;27.95;12.40;;;6.30;99.90;;;;;;6716271;88;20190;-74
2021/03/23 02:50:07;;;;;;;27.30;12.48;;;6.30;99.90;;;;;;6715205;88;20293;-74
2021/03/23 03:00:10;;;;;;;25.25;12.82;;;6.20;99.90;;;;;;6719299;88;20227;-74
2021/03/23 03:10:12;;;;;;;25.58;12.18;;;6.30;99.90;;;;;;6719254;88;20196;-74
2021/03/23 03:20:16;;;;;;;23.42;12.50;;;6.30;99.90;;;;;;6719365;88;20188;-74
2021/03/23 03:30:21;;;;;;;23.35;12.40;;;6.40;99.90;;;;;;6721997;88;20209;-74
2021/03/23 03:40:28;;;;;;;28.85;13.93;;;6.40;99.90;;;;;;6721108;88;20264;-75
2021/03/23 03:50:30;;;;;;;26.15;13.48;;;6.30;99.90;;;;;;6717480;88;20208;-74
2021/03/23 04:00:32;;;;;;;27.13;14.50;;;6.30;99.90;;;;;;6717384;88;20753;-74
2021/03/23 04:10:33;;;;;;;30.70;14.25;;;6.30;99.90;;;;;;6716741;88;20231;-74
2021/03/23 04:20:34;;;;;;;27.55;13.80;;;6.40;99.90;;;;;;6718642;88;20211;-74
2021/03/23 04:30:34;;;;;;;28.98;13.95;;;6.30;99.90;;;;;;6719519;88;20379;-74
2021/03/23 04:40:36;;;;;;;27.75;14.35;;;6.40;99.90;;;;;;6727751;88;20221;-74
2021/03/23 04:50:36;;;;;;;24.85;13.30;;;6.30;99.90;;;;;;6729711;88;20196;-74
2021/03/23 05:00:37;;;;;;;29.15;13.77;;;6.30;99.90;;;;;;6721858;88;20642;-74
2021/03/23 05:10:38;;;;;;;28.60;14.20;;;6.30;99.90;;;;;;6720913;88;20205;-74
2021/03/23 05:20:38;;;;;;;26.92;13.02;;;6.10;99.90;;;;;;6717982;88;20280;-74
2021/03/23 05:30:40;;;;;;;30.05;13.70;;;6.10;99.90;;;;;;6718981;88;20253;-74
2021/03/23 05:40:47;;;;;;;26.87;13.93;;;6.10;99.90;;;;;;6726579;77;20690;-76
2021/03/23 05:51:06;;;;;;;25.12;12.95;;;6.10;99.90;;;;;;6723083;88;20198;-78
2021/03/23 06:01:38;;;;;;;26.67;12.98;;;6.20;99.90;;;;;;6721704;88;20284;-78
2021/03/23 06:11:39;;;;;;;25.92;13.73;;;6.20;99.90;;;;;;6703948;88;20352;-77
2021/03/23 06:22:05;;;;;;;27.80;14.00;;;6.10;99.90;;;;;;6715693;88;20270;-77
2021/03/23 06:32:06;;;;;;;29.70;14.33;;;6.40;99.90;;;;;;6715481;88;20216;-77
2021/03/23 06:42:06;;;;;;;28.30;14.15;;;6.40;99.90;;;;;;6716246;88;20787;-77
2021/03/23 06:52:20;;;;;;;29.73;14.50;;;6.40;99.90;;;;;;6706646;88;20231;-77
2021/03/23 07:02:38;;;;;;;26.15;13.18;;;6.50;99.90;;;;;;6702362;88;20190;-77
2021/03/23 07:12:45;;;;;;;22.58;13.00;;;6.50;99.90;;;;;;6702192;88;20190;-79
2021/03/23 07:22:52;;;;;;;25.33;13.40;;;6.60;99.90;;;;;;6698536;88;20195;-78
2021/03/23 07:32:59;;;;;;;22.50;12.30;;;6.80;99.90;;;;;;6703404;88;20186;-77
2021/03/23 07:43:06;;;;;;;24.95;12.60;;;6.90;99.90;;;;;;6711679;88;20225;-78
2021/03/23 07:53:35;;;;;;;22.73;11.82;;;7.00;99.90;;;;;;6734323;88;20203;-78
2021/03/23 08:03:52;;;;;;;21.48;11.93;;;7.30;99.90;;;;;;6735461;88;20185;-77
2021/03/23 08:14:31;;;;;;;24.08;11.85;;;7.50;99.90;;;;;;6735567;88;20219;-78
2021/03/23 08:24:37;;;;;;;22.65;11.63;;;7.80;99.90;;;;;;6731653;88;20284;-78
2021/03/23 08:34:47;;;;;;;26.70;13.70;;;7.90;99.90;;;;;;6741940;88;20610;-77
2021/03/23 08:44:55;;;;;;;27.55;13.25;;;8.30;99.90;;;;;;6732696;88;20198;-78
2021/03/23 08:54:57;;;;;;;24.98;12.73;;;8.30;99.90;;;;;;6722675;88;20208;-77
2021/03/23 09:04:58;;;;;;;20.80;11.45;;;8.80;99.90;;;;;;6730125;88;20193;-77
2021/03/23 09:15:23;;;;;;;19.92;11.25;;;9.00;99.90;;;;;;6726140;88;20215;-79
2021/03/23 09:25:53;;;;;;;21.35;11.10;;;9.30;99.90;;;;;;6731676;88;20247;-78
2021/03/23 09:36:13;;;;;;;19.33;10.40;;;9.30;99.90;;;;;;6737000;88;20387;-77
2021/03/23 09:46:22;;;;;;;19.58;10.27;;;9.70;99.90;;;;;;6730846;88;20194;-77
2021/03/23 09:56:26;;;;;;;19.90;9.88;;;10.10;99.90;;;;;;6735329;88;20740;-77
2021/03/23 10:06:30;;;;;;;20.33;9.95;;;10.80;99.90;;;;;;6732152;88;20212;-77
2021/03/23 10:16:33;;;;;;;20.55;10.18;;;10.90;99.90;;;;;;6723767;88;20188;-77
2021/03/23 10:26:41;;;;;;;21.33;10.45;;;10.60;99.90;;;;;;6737087;88;20200;-77
2021/03/23 10:36:49;;;;;;;23.42;11.18;;;11.00;99.90;;;;;;6728461;88;20633;-77
2021/03/23 10:46:51;;;;;;;23.05;12.05;;;12.00;99.90;;;;;;6721065;88;20291;-77
2021/03/23 10:56:59;;;;;;;23.90;12.25;;;12.00;98.70;;;;;;6720714;88;20264;-77
2021/03/23 11:07:22;;;;;;;23.25;11.35;;;12.10;98.60;;;;;;6730508;88;20177;-77
2021/03/23 11:17:24;;;;;;;24.15;11.77;;;12.30;98.80;;;;;;6723744;88;20212;-79
2021/03/23 11:27:28;;;;;;;20.45;11.35;;;13.10;96.60;;;;;;6721482;88;20275;-78
2021/03/23 11:37:29;;;;;;;23.98;11.40;;;12.50;96.70;;;;;;6724883;88;20201;-79
2021/03/23 11:47:43;;;;;;;26.40;12.20;;;13.20;96.10;;;;;;6724465;88;20696;-78
2021/03/23 11:57:44;;;;;;;23.48;12.48;;;13.00;95.40;;;;;;6724434;88;20250;-78
2021/03/23 12:08:23;;;;;;;23.12;12.45;;;13.00;94.90;;;;;;6720253;88;20204;-78
2021/03/23 12:18:24;;;;;;;23.17;11.93;;;13.20;95.50;;;;;;6719937;88;20649;-77
2021/03/23 12:28:25;;;;;;;25.20;11.90;;;13.20;95.50;;;;;;6719919;88;20351;-77
2021/03/23 12:38:26;;;;;;;22.52;11.82;;;12.90;95.00;;;;;;6724220;88;20238;-78
2021/03/23 12:48:26;;;;;;;19.37;10.90;;;12.80;95.50;;;;;;6727715;88;20308;-77
2021/03/23 12:58:32;;;;;;;18.70;10.83;;;13.50;94.30;;;;;;6722849;88;20206;-78
2021/03/23 13:08:36;;;;;;;19.00;10.27;;;14.00;92.70;;;;;;6724802;88;20286;-77
2021/03/23 13:18:36;;;;;;;17.80;10.43;;;14.70;91.40;;;;;;6725628;88;20202;-77
2021/03/23 13:28:48;;;;;;;18.27;9.77;;;15.10;90.00;;;;;;6726438;88;20196;-77
2021/03/23 13:38:49;;;;;;;17.05;10.15;;;15.80;85.50;;;;;;6727433;88;20214;-77
2021/03/23 13:48:49;;;;;;;17.75;9.90;;;15.50;85.30;;;;;;6724582;88;20206;-77
2021/03/23 13:58:50;;;;;;;19.90;10.68;;;15.70;85.70;;;;;;6719935;88;20196;-77
2021/03/23 14:08:50;;;;;;;17.55;10.65;;;15.40;86.30;;;;;;6726489;88;20233;-77
2021/03/23 14:18:52;;;;;;;22.13;10.82;;;15.00;87.20;;;;;;6726984;88;20193;-76
2021/03/23 14:28:53;;;;;;;21.50;11.73;;;15.30;87.10;;;;;;6720870;88;20235;-77
2021/03/23 14:38:59;;;;;;;20.62;11.10;;;14.70;85.80;;;;;;6725910;88;20215;-77
2021/03/23 14:49:00;;;;;;;18.15;10.57;;;14.40;88.60;;;;;;6724496;88;20211;-77
2021/03/23 14:59:02;;;;;;;21.67;11.43;;;14.70;86.30;;;;;;6729158;88;20189;-77
2021/03/23 15:09:17;;;;;;;24.00;11.65;;;15.70;83.60;;;;;;6726004;88;20394;-77
2021/03/23 15:19:18;;;;;;;22.58;11.30;;;15.70;84.40;;;;;;6726328;88;20224;-77
2021/03/23 15:29:22;;;;;;;21.83;11.20;;;15.10;85.70;;;;;;6730742;88;20200;-77
2021/03/23 15:39:23;;;;;;;23.38;10.88;;;14.50;88.00;;;;;;6726867;88;20208;-77
2021/03/23 15:49:23;;;;;;;20.58;10.20;;;14.50;87.70;;;;;;6725689;88;20682;-76
2021/03/23 15:59:25;;;;;;;21.40;10.65;;;14.40;86.70;;;;;;6725695;88;20225;-76
2021/03/23 16:09:31;;;;;;;18.45;10.95;;;14.50;86.50;;;;;;6724324;88;20185;-76
2021/03/23 16:19:31;;;;;;;;;;;14.60;86.20;;;;;;6725257;88;20228;-77
2021/03/23 16:29:32;;;;;;;15.50;9.98;;;14.70;86.40;;;;;;6725709;88;20070;-76
2021/03/23 16:39:33;;;;;;;20.07;10.20;;;14.60;86.20;;;;;;6726705;88;20732;-76
2021/03/23 16:49:33;;;;;;;18.53;10.37;;;14.20;86.50;;;;;;6724914;88;20541;-77
2021/03/23 16:59:34;;;;;;;18.87;10.35;;;13.60;87.60;;;;;;6726117;88;20193;-77
2021/03/23 17:09:34;;;;;;;19.30;10.23;;;13.20;89.60;;;;;;6726958;88;20283;-77
2021/03/23 17:19:35;;;;;;;19.08;11.75;;;12.70;90.80;;;;;;6725891;88;20596;-77
2021/03/23 17:29:37;;;;;;;20.08;10.38;;;12.30;92.10;;;;;;6723132;88;20250;-77
2021/03/23 17:39:38;;;;;;;17.35;9.10;;;11.90;93.60;;;;;;6725473;88;20271;-77
2021/03/23 17:49:39;;;;;;;18.92;10.95;;;11.60;94.90;;;;;;6731436;88;20217;-77
2021/03/23 17:59:40;;;;;;;16.55;10.82;;;11.30;97.10;;;;;;6724374;88;20177;-77
2021/03/23 18:09:40;;;;;;;21.25;11.02;;;10.90;98.40;;;;;;6725786;88;20191;-79
2021/03/23 18:19:41;;;;;;;32.13;15.13;;;10.50;99.90;;;;;;6729612;88;20316;-77
2021/03/23 18:29:43;;;;;;;48.35;20.02;;;10.30;99.90;;;;;;6729171;88;20688;-77
2021/03/23 18:39:43;;;;;;;19.87;9.82;;;10.00;99.90;;;;;;6732082;88;20242;-77
2021/03/23 18:49:44;;;;;;;20.17;10.73;;;9.60;99.90;;;;;;6720729;88;20652;-77
2021/03/23 18:59:44;;;;;;;19.87;11.05;;;9.40;99.90;;;;;;6729434;88;20335;-77
2021/03/23 19:09:45;;;;;;;21.30;11.00;;;9.00;99.90;;;;;;6734156;88;20203;-77
2021/03/23 19:19:45;;;;;;;20.92;11.23;;;8.90;99.90;;;;;;6732133;88;20549;-77
2021/03/23 19:29:46;;;;;;;20.45;11.70;;;8.70;99.90;;;;;;6729720;88;20753;-77
2021/03/23 19:39:46;;;;;;;24.48;12.20;;;8.50;99.90;;;;;;6731607;88;20706;-78
2021/03/23 19:49:47;;;;;;;23.33;12.23;;;8.40;99.90;;;;;;6731581;88;20250;-77
2021/03/23 19:59:49;;;;;;;24.27;13.10;;;8.20;99.90;;;;;;6732588;88;20269;-77
2021/03/23 20:09:50;;;;;;;24.87;13.05;;;8.10;99.90;;;;;;6729329;88;20724;-76
2021/03/23 20:19:51;;;;;;;25.80;11.77;;;8.00;99.90;;;;;;6728062;88;20173;-77
2021/03/23 20:29:52;;;;;;;24.83;11.75;;;7.90;99.90;;;;;;6731995;88;20190;-77
2021/03/23 20:39:53;;;;;;;23.83;12.30;;;7.70;99.90;;;;;;6729594;88;20229;-76
2021/03/23 20:49:53;;;;;;;27.90;12.70;;;7.60;99.90;;;;;;6729295;88;20174;-77
2021/03/23 20:59:54;;;;;;;26.15;11.98;;;7.40;99.90;;;;;;6725979;88;20546;-77
2021/03/23 21:09:54;;;;;;;26.87;13.85;;;7.40;99.90;;;;;;6730158;88;20403;-77
2021/03/23 21:19:55;;;;;;;28.67;13.05;;;7.10;99.90;;;;;;6725774;88;20244;-77
2021/03/23 21:29:55;;;;;;;29.45;14.40;;;6.70;99.90;;;;;;6722644;88;20272;-77
2021/03/23 21:39:59;;;;;;;30.67;16.55;;;6.50;99.90;;;;;;6727283;88;20226;-77
2021/03/23 21:50:06;;;;;;;28.33;15.82;;;6.30;99.90;;;;;;6720739;88;20188;-76
2021/03/23 22:00:09;;;;;;;35.03;18.85;;;6.10;99.90;;;;;;6726258;88;20290;-76
2021/03/23 22:10:10;;;;;;;29.70;14.35;;;5.90;99.90;;;;;;6728806;88;20196;-78
2021/03/23 22:20:11;;;;;;;27.77;15.38;;;5.80;99.90;;;;;;6728116;88;20215;-76
2021/03/23 22:30:38;;;;;;;26.87;14.25;;;5.50;99.90;;;;;;6724528;88;20298;-76
2021/03/23 22:40:48;;;;;;;29.93;13.13;;;5.40;99.90;;;;;;6724673;88;20185;-78
2021/03/23 22:50:52;;;;;;;27.92;13.10;;;5.20;99.90;;;;;;6722298;88;20189;-77
2021/03/23 23:00:58;;;;;;;25.35;12.98;;;5.20;99.90;;;;;;6727687;88;20243;-78
2021/03/23 23:11:01;;;;;;;33.95;19.90;;;5.30;99.90;;;;;;6725418;88;20202;-77
2021/03/23 23:21:12;;;;;;;25.50;12.57;;;5.10;99.90;;;;;;6729376;88;20197;-76
2021/03/23 23:31:13;;;;;;;28.45;12.82;;;5.10;99.90;;;;;;6721534;88;20208;-76
2021/03/23 23:41:14;;;;;;;31.12;13.85;;;5.30;99.90;;;;;;6730638;88;20583;-76
2021/03/23 23:51:14;;;;;;;25.95;13.18;;;5.30;99.90;;;;;;6727713;88;20200;-74
